createdAt,value
2022-09-14T00:01:21.062Z,12.53
2022-09-14T00:03:45.762Z,15.70
2022-09-14T00:06:15.586Z,13.10
2022-09-14T00:08:43.607Z,14.87
2022-09-14T00:11:13.197Z,21.37
2022-09-14T00:13:42.112Z,17.97
2022-09-14T00:16:17.762Z,22.00
2022-09-14T00:18:44.918Z,18.03
2022-09-14T00:21:12.746Z,23.10
2022-09-14T00:23:42.082Z,21.50
2022-09-14T00:26:12.304Z,16.70
2022-09-14T00:28:41.291Z,26.57
2022-09-14T00:31:08.832Z,24.07
2022-09-14T00:33:36.241Z,27.60
2022-09-14T00:36:07.407Z,26.30
2022-09-14T00:38:34.392Z,25.23
2022-09-14T00:41:01.960Z,32.80
2022-09-14T00:43:29.254Z,22.93
2022-09-14T00:45:56.398Z,28.50
2022-09-14T00:48:25.513Z,32.17
2022-09-14T00:50:53.756Z,24.70
2022-09-14T00:53:20.609Z,28.87
2022-09-14T00:55:47.737Z,31.40
2022-09-14T00:58:14.387Z,34.37
2022-09-14T01:00:41.115Z,38.70
2022-09-14T01:03:07.800Z,32.00
2022-09-14T01:05:50.802Z,33.47
2022-09-14T01:08:48.142Z,41.65
2022-09-14T01:11:39.657Z,39.67
2022-09-14T01:14:27.476Z,40.03
2022-09-14T01:16:59.031Z,46.43
2022-09-14T01:19:34.815Z,44.90
2022-09-14T01:22:09.414Z,41.27
2022-09-14T01:24:48.548Z,40.07
2022-09-14T01:27:33.613Z,47.87
2022-09-14T01:30:06.946Z,43.93
2022-09-14T01:32:46.651Z,44.80
2022-09-14T01:35:24.813Z,38.07
2022-09-14T01:38:01.338Z,37.23
2022-09-14T01:40:34.064Z,44.27
2022-09-14T01:43:14.466Z,37.23
2022-09-14T01:45:46.841Z,38.30
2022-09-14T01:48:15.853Z,35.53
2022-09-14T01:50:48.504Z,46.13
2022-09-14T01:53:26.203Z,52.23
2022-09-14T01:56:03.292Z,53.57
2022-09-14T01:58:48.472Z,54.17
2022-09-14T02:01:21.915Z,45.80
2022-09-14T02:03:57.887Z,54.80
2022-09-14T02:06:36.269Z,34.60
2022-09-14T02:09:05.312Z,41.60
2022-09-14T02:11:32.401Z,43.37
2022-09-14T02:13:59.418Z,57.43
2022-09-14T02:16:26.504Z,50.73
2022-09-14T02:18:53.807Z,52.77
2022-09-14T02:21:26.431Z,52.60
2022-09-14T02:23:53.685Z,66.43
2022-09-14T02:26:22.936Z,57.07
2022-09-14T02:28:50.260Z,49.03
2022-09-14T02:31:30.292Z,40.27
2022-09-14T02:33:59.771Z,53.73
2022-09-14T02:36:26.341Z,39.47
2022-09-14T02:39:01.442Z,49.97
2022-09-14T02:42:09.380Z,53.27
2022-09-14T02:44:52.323Z,45.60
2022-09-14T02:47:25.379Z,46.77
2022-09-14T02:50:04.502Z,43.83
2022-09-14T02:52:44.703Z,50.63
2022-09-14T02:55:17.220Z,47.00
2022-09-14T02:58:10.076Z,40.57
2022-09-14T03:00:45.552Z,47.67
2022-09-14T03:03:14.004Z,41.73
2022-09-14T03:05:41.333Z,39.47
2022-09-14T03:08:10.192Z,35.23
2022-09-14T03:10:37.411Z,34.53
2022-09-14T03:13:04.551Z,36.97
2022-09-14T03:15:31.379Z,36.80
2022-09-14T03:17:58.541Z,38.67
2022-09-14T03:20:28.783Z,28.53
2022-09-14T03:22:55.726Z,37.80
2022-09-14T03:25:23.969Z,35.70
2022-09-14T03:28:00.650Z,42.13
2022-09-14T03:30:27.925Z,30.73
2022-09-14T03:32:54.627Z,35.67
2022-09-14T03:35:21.545Z,36.87
2022-09-14T03:37:48.202Z,41.13
2022-09-14T03:40:21.342Z,36.97
2022-09-14T03:42:50.410Z,34.13
2022-09-14T03:45:17.922Z,37.73
2022-09-14T03:47:45.198Z,22.07
2022-09-14T03:50:13.022Z,33.43
2022-09-14T03:52:39.875Z,37.80
2022-09-14T03:55:09.136Z,38.27
2022-09-14T03:57:36.284Z,29.40
2022-09-14T04:00:04.551Z,28.63
2022-09-14T04:02:31.303Z,36.50
2022-09-14T04:04:58.381Z,28.47
2022-09-14T04:07:25.119Z,41.53
2022-09-14T04:09:52.161Z,40.67
2022-09-14T04:12:18.791Z,41.27
2022-09-14T04:14:45.457Z,45.90
2022-09-14T04:17:12.485Z,44.57
2022-09-14T04:19:41.474Z,37.97
2022-09-14T04:22:08.322Z,44.10
2022-09-14T04:24:35.468Z,35.27
2022-09-14T04:27:02.502Z,35.30
2022-09-14T04:29:30.550Z,38.50
2022-09-14T04:31:57.970Z,37.83
2022-09-14T04:34:24.857Z,45.60
2022-09-14T04:36:51.491Z,34.53
2022-09-14T04:39:18.265Z,43.60
2022-09-14T04:41:44.899Z,50.03
2022-09-14T04:44:11.758Z,50.63
2022-09-14T04:46:43.609Z,53.47
2022-09-14T04:49:13.418Z,56.03
2022-09-14T04:51:40.075Z,51.70
2022-09-14T04:54:07.486Z,48.13
2022-09-14T04:56:36.871Z,49.67
2022-09-14T04:59:05.649Z,49.77
2022-09-14T05:01:36.219Z,52.33
2022-09-14T05:04:03.723Z,58.53
2022-09-14T05:06:33.357Z,55.83
2022-09-14T05:09:01.663Z,66.40
2022-09-14T05:11:31.071Z,69.33
2022-09-14T05:13:58.694Z,72.10
2022-09-14T05:16:31.252Z,55.67
2022-09-14T05:19:03.797Z,61.50
2022-09-14T05:21:32.559Z,61.23
2022-09-14T05:24:01.884Z,61.00
2022-09-14T05:26:30.153Z,50.80
2022-09-14T05:28:58.663Z,52.77
2022-09-14T05:31:26.828Z,52.30
2022-09-14T05:33:53.788Z,50.77
2022-09-14T05:36:21.198Z,58.67
2022-09-14T05:38:48.243Z,49.00
2022-09-14T05:41:15.859Z,50.37
2022-09-14T05:43:43.031Z,47.67
2022-09-14T05:46:17.601Z,61.20
2022-09-14T05:48:44.780Z,58.80
2022-09-14T05:51:14.199Z,67.03
2022-09-14T05:53:41.353Z,60.07
2022-09-14T05:56:12.065Z,62.03
2022-09-14T05:58:39.721Z,52.57
2022-09-14T06:01:12.529Z,46.67
2022-09-14T06:03:39.829Z,57.00
2022-09-14T06:06:07.789Z,55.83
2022-09-14T06:08:35.053Z,59.90
2022-09-14T06:11:10.010Z,53.37
2022-09-14T06:13:37.618Z,50.57
2022-09-14T06:16:09.527Z,55.50
2022-09-14T06:18:37.348Z,53.80
2022-09-14T06:21:04.678Z,52.67
2022-09-14T06:23:32.341Z,32.10
2022-09-14T06:26:00.480Z,30.50
2022-09-14T06:28:28.310Z,30.40
2022-09-14T06:30:55.444Z,23.53
2022-09-14T06:33:22.709Z,21.57
2022-09-14T06:36:02.421Z,19.20
2022-09-14T06:38:29.905Z,16.40
2022-09-14T06:41:00.743Z,15.70
2022-09-14T06:43:29.136Z,15.03
2022-09-14T06:46:20.131Z,13.23
2022-09-14T06:48:56.611Z,9.50
2022-09-14T06:51:27.545Z,9.83
2022-09-14T06:53:58.091Z,9.77
2022-09-14T06:56:28.236Z,9.60
2022-09-14T06:58:55.451Z,8.27
2022-09-14T07:01:22.433Z,7.57
2022-09-14T07:03:51.434Z,6.83
2022-09-14T07:06:26.610Z,7.80
2022-09-14T07:08:54.440Z,5.40
2022-09-14T07:11:25.726Z,7.60
2022-09-14T07:13:54.656Z,5.27
2022-09-14T07:16:21.876Z,5.57
2022-09-14T07:18:48.780Z,6.60
2022-09-14T07:21:17.961Z,7.13
2022-09-14T07:23:47.284Z,6.53
2022-09-14T07:26:21.516Z,5.33
2022-09-14T07:28:51.177Z,6.00
2022-09-14T07:31:22.577Z,7.50
2022-09-14T07:33:53.175Z,9.17
2022-09-14T07:36:20.339Z,8.20
2022-09-14T07:38:54.557Z,12.70
2022-09-14T07:41:22.439Z,12.40
2022-09-14T07:43:50.422Z,11.87
2022-09-14T07:46:18.185Z,8.93
2022-09-14T07:48:45.429Z,11.47
2022-09-14T07:51:12.760Z,7.53
2022-09-14T07:53:42.426Z,8.20
2022-09-14T07:56:10.468Z,8.07
2022-09-14T07:58:37.133Z,12.60
2022-09-14T08:01:08.994Z,8.03
2022-09-14T08:03:36.448Z,7.20
2022-09-14T08:06:05.853Z,10.70
2022-09-14T08:08:36.016Z,9.17
2022-09-14T08:11:07.711Z,9.83
2022-09-14T08:13:35.698Z,9.70
2022-09-14T08:16:02.755Z,7.63
2022-09-14T08:18:32.242Z,8.57
2022-09-14T08:21:09.850Z,6.70
2022-09-14T08:23:37.575Z,8.50
2022-09-14T08:26:09.705Z,10.53
2022-09-14T08:28:36.988Z,11.50
2022-09-14T08:31:09.033Z,9.33
2022-09-14T08:33:37.248Z,7.93
2022-09-14T08:36:04.864Z,9.00
2022-09-14T08:38:31.933Z,9.10
2022-09-14T08:40:59.962Z,9.27
2022-09-14T08:43:27.846Z,7.43
2022-09-14T08:45:58.190Z,8.30
2022-09-14T08:48:35.715Z,6.97
2022-09-14T08:51:04.408Z,7.90
2022-09-14T08:53:32.975Z,7.47
2022-09-14T08:56:09.374Z,6.23
2022-09-14T08:59:06.743Z,8.03
2022-09-14T09:01:43.459Z,6.27
2022-09-14T09:04:28.729Z,7.37
2022-09-14T09:06:58.776Z,7.17
2022-09-14T09:09:39.632Z,6.70
2022-09-14T09:12:06.519Z,6.43
2022-09-14T09:14:43.977Z,6.33
2022-09-14T09:17:33.464Z,4.87
2022-09-14T09:20:09.192Z,6.23
2022-09-14T09:22:41.937Z,6.07
2022-09-14T09:25:20.483Z,5.20
2022-09-14T09:27:47.611Z,6.57
2022-09-14T09:30:15.531Z,7.37
2022-09-14T09:32:42.872Z,8.37
2022-09-14T09:35:15.796Z,5.77
2022-09-14T09:37:42.849Z,7.03
2022-09-14T09:40:18.560Z,6.60
2022-09-14T09:43:05.111Z,4.90
2022-09-14T09:45:49.721Z,3.50
2022-09-14T09:48:18.158Z,3.40
2022-09-14T09:50:50.151Z,5.30
2022-09-14T09:53:17.813Z,3.20
2022-09-14T09:55:48.843Z,4.30
2022-09-14T09:58:23.005Z,5.13
2022-09-14T10:00:57.019Z,3.63
2022-09-14T10:03:29.138Z,4.80
2022-09-14T10:06:22.255Z,3.77
2022-09-14T10:08:49.801Z,4.27
2022-09-14T10:11:37.800Z,6.93
2022-09-14T10:14:29.137Z,5.93
2022-09-14T10:17:05.436Z,4.87
2022-09-14T10:19:33.509Z,5.37
2022-09-14T10:22:27.906Z,4.50
2022-09-14T10:24:55.231Z,6.90
2022-09-14T10:27:36.998Z,5.60
2022-09-14T10:30:07.207Z,6.37
2022-09-14T10:32:34.994Z,5.83
2022-09-14T10:35:02.187Z,5.17
2022-09-14T10:37:33.406Z,4.67
2022-09-14T10:40:15.589Z,5.40
2022-09-14T10:43:12.234Z,4.63
2022-09-14T10:45:41.711Z,5.30
2022-09-14T10:48:20.442Z,5.97
2022-09-14T10:50:53.814Z,6.77
2022-09-14T10:53:41.237Z,9.47
2022-09-14T10:56:19.721Z,6.03
2022-09-14T10:59:05.597Z,6.80
2022-09-14T11:02:04.452Z,5.03
2022-09-14T11:04:54.749Z,7.03
2022-09-14T11:07:22.474Z,6.53
2022-09-14T11:10:12.654Z,6.00
2022-09-14T11:13:17.473Z,5.73
2022-09-14T11:15:47.424Z,7.20
2022-09-14T11:18:46.062Z,4.73
2022-09-14T11:21:16.087Z,6.10
2022-09-14T11:23:54.835Z,5.20
2022-09-14T11:26:42.302Z,4.80
2022-09-14T11:29:44.240Z,4.57
2022-09-14T11:32:28.510Z,5.03
2022-09-14T11:35:03.368Z,4.87
2022-09-14T11:37:32.992Z,6.33
2022-09-14T11:40:08.079Z,4.33
2022-09-14T11:42:43.652Z,4.60
2022-09-14T11:45:22.286Z,5.10
2022-09-14T11:47:59.284Z,5.47
2022-09-14T11:50:28.658Z,5.10
2022-09-14T11:53:07.546Z,6.07
2022-09-14T11:55:34.704Z,8.07
2022-09-14T11:58:04.904Z,5.00
2022-09-14T12:00:31.716Z,5.33
2022-09-14T12:03:00.187Z,4.47
2022-09-14T12:05:30.265Z,4.47
2022-09-14T12:08:26.126Z,5.87
2022-09-14T12:11:28.573Z,4.70
2022-09-14T12:14:23.829Z,5.87
2022-09-14T12:17:39.326Z,6.73
2022-09-14T12:20:33.799Z,5.90
2022-09-14T12:23:34.448Z,4.23
2022-09-14T12:26:27.998Z,4.97
2022-09-14T12:28:57.786Z,5.87
2022-09-14T12:31:32.931Z,3.80
2022-09-14T12:34:19.842Z,4.70
2022-09-14T12:36:46.449Z,4.93
2022-09-14T12:39:25.813Z,4.43
2022-09-14T12:41:52.841Z,4.47
2022-09-14T12:44:39.494Z,4.90
2022-09-14T12:47:24.481Z,4.40
2022-09-14T12:49:53.519Z,6.10
2022-09-14T12:52:39.171Z,4.67
2022-09-14T12:55:20.571Z,5.77
2022-09-14T12:58:00.395Z,7.20
2022-09-14T13:00:29.715Z,7.63
2022-09-14T13:03:02.000Z,7.80
2022-09-14T13:05:32.176Z,8.00
2022-09-14T13:07:59.500Z,6.70
2022-09-14T13:10:32.070Z,5.90
2022-09-14T13:13:01.899Z,5.70
2022-09-14T13:15:44.872Z,6.53
2022-09-14T13:18:17.231Z,5.40
2022-09-14T13:20:51.795Z,4.43
2022-09-14T13:23:23.772Z,5.50
2022-09-14T13:25:50.800Z,5.80
2022-09-14T13:28:19.773Z,4.63
2022-09-14T13:30:58.311Z,4.77
2022-09-14T13:33:25.557Z,5.10
2022-09-14T13:35:55.245Z,4.07
2022-09-14T13:38:32.178Z,4.63
2022-09-14T13:41:09.180Z,5.90
2022-09-14T13:43:36.414Z,8.07
2022-09-14T13:46:08.026Z,6.03
2022-09-14T13:48:37.406Z,7.50
2022-09-14T13:51:06.018Z,5.70
2022-09-14T13:53:53.493Z,6.10
2022-09-14T13:56:20.636Z,5.53
2022-09-14T13:58:50.307Z,8.07
2022-09-14T14:01:30.260Z,5.77
2022-09-14T14:04:03.268Z,9.97
2022-09-14T14:06:34.794Z,7.77
2022-09-14T14:09:09.755Z,5.30
2022-09-14T14:11:45.561Z,9.13
2022-09-14T14:14:12.640Z,6.13
2022-09-14T14:16:39.837Z,7.77
2022-09-14T14:19:26.328Z,8.10
2022-09-14T14:22:14.676Z,5.87
2022-09-14T14:25:09.122Z,6.77
2022-09-14T14:27:37.663Z,7.20
2022-09-14T14:30:26.860Z,7.10
2022-09-14T14:32:55.987Z,8.80
2022-09-14T14:35:25.837Z,8.50
2022-09-14T14:37:52.560Z,12.83
2022-09-14T14:40:20.119Z,6.00
2022-09-14T14:42:49.314Z,8.00
2022-09-14T14:45:27.354Z,7.20
2022-09-14T14:47:55.608Z,5.67
2022-09-14T14:50:27.669Z,5.97
2022-09-14T14:52:54.922Z,4.43
2022-09-14T14:55:23.754Z,4.97
2022-09-14T14:57:52.448Z,6.90
2022-09-14T15:00:22.548Z,5.57
2022-09-14T15:02:50.332Z,7.80
2022-09-14T15:05:17.569Z,5.90
2022-09-14T15:07:44.924Z,8.30
2022-09-14T15:10:15.747Z,7.00
2022-09-14T15:12:43.117Z,5.17
2022-09-14T15:15:14.673Z,7.43
2022-09-14T15:17:42.459Z,6.13
2022-09-14T15:20:10.307Z,8.47
2022-09-14T15:22:37.349Z,9.90
2022-09-14T15:25:05.448Z,11.13
2022-09-14T15:27:32.997Z,9.97
2022-09-14T15:30:00.175Z,16.43
2022-09-14T15:32:27.399Z,11.67
2022-09-14T15:34:54.190Z,15.00
2022-09-14T15:37:21.361Z,13.20
2022-09-14T15:39:50.559Z,15.83
2022-09-14T15:42:18.453Z,14.80
2022-09-14T15:44:45.651Z,16.13
2022-09-14T15:47:16.618Z,17.23
2022-09-14T15:49:43.811Z,10.50
2022-09-14T15:52:11.350Z,11.23
2022-09-14T15:54:38.939Z,9.30
2022-09-14T15:57:08.229Z,11.57
2022-09-14T15:59:35.147Z,9.50
2022-09-14T16:02:02.363Z,10.30
2022-09-14T16:04:29.533Z,9.67
2022-09-14T16:06:56.592Z,7.57
2022-09-14T16:09:23.350Z,11.20
2022-09-14T16:11:50.426Z,13.67
2022-09-14T16:14:17.194Z,12.37
2022-09-14T16:16:44.371Z,13.33
2022-09-14T16:19:13.790Z,79.10
2022-09-14T16:21:41.960Z,24.63
2022-09-14T16:24:15.736Z,10.27
2022-09-14T16:26:43.193Z,83.37
2022-09-14T16:29:12.209Z,30.43
2022-09-14T16:31:40.522Z,17.07
2022-09-14T16:34:11.810Z,11.00
2022-09-14T16:36:40.049Z,13.23
2022-09-14T16:39:11.187Z,36.83
2022-09-14T16:41:40.362Z,16.80
2022-09-14T16:44:07.488Z,9.13
2022-09-14T16:46:34.780Z,8.07
2022-09-14T16:49:01.568Z,7.37
2022-09-14T16:51:30.480Z,9.77
2022-09-14T16:53:59.671Z,7.60
2022-09-14T16:56:35.336Z,7.63
2022-09-14T16:59:03.698Z,7.03
2022-09-14T17:01:35.730Z,6.63
2022-09-14T17:04:08.276Z,6.00
2022-09-14T17:06:36.559Z,6.33
2022-09-14T17:09:09.701Z,6.53
2022-09-14T17:11:37.543Z,6.63
2022-09-14T17:14:04.814Z,6.00
2022-09-14T17:16:32.022Z,5.47
2022-09-14T17:19:01.232Z,5.73
2022-09-14T17:21:31.993Z,6.87
2022-09-14T17:23:59.408Z,7.40
2022-09-14T17:26:26.505Z,9.13
2022-09-14T17:28:55.697Z,7.50
2022-09-14T17:31:26.309Z,6.97
2022-09-14T17:33:57.813Z,7.30
2022-09-14T17:36:25.314Z,7.30
2022-09-14T17:38:52.529Z,8.43
2022-09-14T17:41:21.812Z,6.63
2022-09-14T17:43:57.112Z,7.03
2022-09-14T17:46:24.500Z,5.07
2022-09-14T17:48:51.946Z,7.13
2022-09-14T17:51:25.552Z,7.40
2022-09-14T17:53:53.751Z,6.80
2022-09-14T17:56:22.219Z,6.97
2022-09-14T17:58:59.361Z,8.47
2022-09-14T18:01:26.180Z,9.50
2022-09-14T18:03:55.761Z,7.60
2022-09-14T18:06:24.066Z,11.20
2022-09-14T18:09:00.169Z,8.37
2022-09-14T18:11:28.171Z,12.50
2022-09-14T18:13:55.859Z,7.90
2022-09-14T18:16:24.084Z,8.73
2022-09-14T18:18:51.505Z,9.73
2022-09-14T18:21:18.778Z,10.13
2022-09-14T18:23:52.295Z,8.90
2022-09-14T18:26:20.056Z,8.77
2022-09-14T18:28:46.905Z,10.03
2022-09-14T18:31:15.933Z,8.20
2022-09-14T18:34:01.565Z,9.37
2022-09-14T18:36:29.972Z,10.17
2022-09-14T18:38:59.984Z,10.30
2022-09-14T18:41:32.380Z,10.87
2022-09-14T18:43:59.662Z,10.17
2022-09-14T18:46:28.566Z,10.07
2022-09-14T18:49:01.024Z,11.30
2022-09-14T18:51:29.589Z,13.30
2022-09-14T18:54:03.660Z,11.37
2022-09-14T18:56:33.155Z,9.07
2022-09-14T18:59:00.720Z,13.67
2022-09-14T19:01:27.696Z,10.40
2022-09-14T19:03:55.996Z,13.07
2022-09-14T19:06:23.046Z,12.23
2022-09-14T19:08:50.300Z,16.00
2022-09-14T19:11:18.775Z,13.13
2022-09-14T19:13:46.302Z,12.07
2022-09-14T19:16:15.972Z,11.63
2022-09-14T19:18:44.002Z,12.50
2022-09-14T19:21:12.610Z,13.53
2022-09-14T19:23:39.955Z,14.10
2022-09-14T19:26:09.024Z,12.57
2022-09-14T19:28:36.558Z,16.53
2022-09-14T19:31:08.534Z,15.90
2022-09-14T19:33:36.196Z,15.87
2022-09-14T19:36:09.413Z,17.07
2022-09-14T19:38:36.894Z,19.00
2022-09-14T19:41:05.135Z,14.47
2022-09-14T19:43:33.212Z,15.30
2022-09-14T19:46:20.231Z,16.37
2022-09-14T19:48:47.683Z,16.87
2022-09-14T19:51:16.029Z,16.20
2022-09-14T19:53:44.072Z,20.83
2022-09-14T19:56:12.614Z,23.10
2022-09-14T19:58:40.475Z,25.40
2022-09-14T20:01:07.683Z,23.83
2022-09-14T20:03:36.773Z,21.87
2022-09-14T20:06:06.677Z,21.90
2022-09-14T20:08:34.860Z,22.47
2022-09-14T20:11:07.078Z,20.30
2022-09-14T20:13:34.596Z,22.87
2022-09-14T20:16:09.050Z,17.90
2022-09-14T20:18:36.136Z,20.40
2022-09-14T20:21:06.701Z,23.07
2022-09-14T20:23:33.775Z,19.90
2022-09-14T20:26:04.766Z,17.90
2022-09-14T20:28:33.749Z,17.13
2022-09-14T20:31:01.843Z,17.77
2022-09-14T20:33:29.404Z,23.20
2022-09-14T20:36:06.753Z,20.10
2022-09-14T20:38:33.764Z,23.40
2022-09-14T20:41:02.674Z,25.10
2022-09-14T20:43:34.014Z,25.30
2022-09-14T20:46:09.230Z,25.00
2022-09-14T20:48:36.307Z,25.80
2022-09-14T20:51:03.411Z,30.50
2022-09-14T20:53:33.947Z,27.20
2022-09-14T20:56:01.976Z,29.30
2022-09-14T20:58:28.822Z,25.83
2022-09-14T21:01:12.179Z,31.53
2022-09-14T21:03:40.947Z,31.30
2022-09-14T21:06:10.700Z,29.13
2022-09-14T21:08:39.564Z,28.93
2022-09-14T21:11:22.673Z,31.47
2022-09-14T21:13:51.262Z,28.33
2022-09-14T21:16:20.110Z,30.33
2022-09-14T21:18:48.013Z,30.17
2022-09-14T21:21:17.123Z,33.73
2022-09-14T21:23:44.250Z,33.93
2022-09-14T21:26:12.328Z,38.03
2022-09-14T21:28:40.048Z,36.00
2022-09-14T21:31:29.844Z,35.73
2022-09-14T21:33:58.962Z,34.33
2022-09-14T21:36:28.366Z,36.30
2022-09-14T21:38:57.268Z,38.97
2022-09-14T21:41:25.648Z,40.83
2022-09-14T21:43:52.883Z,40.07
2022-09-14T21:46:19.981Z,41.33
2022-09-14T21:48:46.908Z,42.57
2022-09-14T21:51:20.995Z,44.93
2022-09-14T21:53:53.304Z,43.67
2022-09-14T21:56:21.610Z,41.80
2022-09-14T21:58:55.579Z,40.57
2022-09-14T22:01:23.781Z,48.07
2022-09-14T22:03:51.865Z,38.17
2022-09-14T22:06:20.329Z,41.10
2022-09-14T22:08:46.966Z,35.77
2022-09-14T22:11:18.258Z,42.80
2022-09-14T22:13:53.921Z,41.30
2022-09-14T22:16:22.438Z,45.17
2022-09-14T22:18:51.445Z,48.93
2022-09-14T22:21:19.586Z,48.87
2022-09-14T22:23:53.561Z,50.17
2022-09-14T22:26:21.147Z,43.07
2022-09-14T22:28:49.098Z,42.20
2022-09-14T22:31:17.657Z,49.13
2022-09-14T22:33:44.923Z,45.60
2022-09-14T22:36:12.123Z,43.77
2022-09-14T22:38:40.943Z,42.10
2022-09-14T22:41:12.726Z,52.40
2022-09-14T22:43:40.469Z,42.93
2022-09-14T22:46:08.333Z,44.27
2022-09-14T22:48:35.905Z,43.57
2022-09-14T22:51:03.398Z,45.33
2022-09-14T22:53:30.852Z,44.10
2022-09-14T22:55:57.679Z,47.73
2022-09-14T22:58:26.593Z,43.20
2022-09-14T23:00:54.101Z,47.33
2022-09-14T23:03:21.333Z,45.30
2022-09-14T23:05:49.576Z,46.87
2022-09-14T23:08:16.743Z,46.63
2022-09-14T23:10:43.774Z,33.87
2022-09-14T23:13:10.414Z,46.30
2022-09-14T23:15:38.545Z,42.57
2022-09-14T23:18:05.966Z,38.90
2022-09-14T23:20:36.295Z,40.43
2022-09-14T23:23:03.212Z,41.03
2022-09-14T23:25:29.928Z,41.90
2022-09-14T23:27:56.907Z,40.77
2022-09-14T23:30:24.026Z,46.17
2022-09-14T23:32:50.841Z,39.43
2022-09-14T23:35:17.817Z,40.27
2022-09-14T23:37:44.518Z,46.50
2022-09-14T23:40:12.717Z,46.20
2022-09-14T23:42:39.828Z,40.17
2022-09-14T23:45:07.053Z,49.67
2022-09-14T23:47:33.678Z,50.33
2022-09-14T23:50:00.725Z,42.03
2022-09-14T23:52:27.408Z,42.23
2022-09-14T23:54:54.092Z,35.23
2022-09-14T23:57:20.764Z,37.47
2022-09-14T23:59:47.387Z,35.27
